sensor_id;sensor_type;location;lat;lon;timestamp;pressure;altitude;pressure_sealevel;temperature;humidity
47726;BME280;33483;48.294;16.388;2023-08-01T00:00:22;98839.34;;;18.48;100.00
47726;BME280;33483;48.294;16.388;2023-08-01T00:03:10;98841.91;;;18.44;100.00
47726;BME280;33483;48.294;16.388;2023-08-01T00:05:39;98846.63;;;18.42;100.00
47726;BME280;33483;48.294;16.388;2023-08-01T00:08:13;98845.00;;;18.39;100.00
47726;BME280;33483;48.294;16.388;2023-08-01T00:10:43;98844.72;;;18.35;100.00
47726;BME280;33483;48.294;16.388;2023-08-01T00:13:11;98844.31;;;18.29;100.00
47726;BME280;33483;48.294;16.388;2023-08-01T00:15:40;98828.94;;;18.30;100.00
47726;BME280;33483;48.294;16.388;2023-08-01T00:18:50;98833.69;;;18.27;100.00
47726;BME280;33483;48.294;16.388;2023-08-01T00:21:22;98828.53;;;18.24;100.00
47726;BME280;33483;48.294;16.388;2023-08-01T00:23:50;98824.13;;;18.21;100.00
47726;BME280;33483;48.294;16.388;2023-08-01T00:26:19;98814.72;;;18.16;100.00
47726;BME280;33483;48.294;16.388;2023-08-01T00:28:46;98797.88;;;18.16;100.00
47726;BME280;33483;48.294;16.388;2023-08-01T00:31:15;98787.25;;;18.15;100.00
47726;BME280;33483;48.294;16.388;2023-08-01T00:33:42;98784.72;;;18.19;100.00
47726;BME280;33483;48.294;16.388;2023-08-01T00:36:10;98781.06;;;18.16;100.00
47726;BME280;33483;48.294;16.388;2023-08-01T00:38:38;98781.66;;;18.15;100.00
47726;BME280;33483;48.294;16.388;2023-08-01T00:41:08;98769.41;;;18.10;100.00
47726;BME280;33483;48.294;16.388;2023-08-01T00:43:50;98766.47;;;18.08;100.00
47726;BME280;33483;48.294;16.388;2023-08-01T00:46:18;98760.59;;;18.04;100.00
47726;BME280;33483;48.294;16.388;2023-08-01T00:48:46;98747.91;;;18.03;100.00
47726;BME280;33483;48.294;16.388;2023-08-01T00:51:14;98747.03;;;18.01;100.00
47726;BME280;33483;48.294;16.388;2023-08-01T00:53:42;98747.50;;;17.97;100.00
47726;BME280;33483;48.294;16.388;2023-08-01T00:56:14;98743.94;;;17.96;100.00
47726;BME280;33483;48.294;16.388;2023-08-01T00:58:41;98738.06;;;17.92;100.00
47726;BME280;33483;48.294;16.388;2023-08-01T01:01:09;98741.47;;;17.91;100.00
47726;BME280;33483;48.294;16.388;2023-08-01T01:03:36;98737.06;;;17.88;100.00
47726;BME280;33483;48.294;16.388;2023-08-01T01:08:35;98741.66;;;17.83;100.00
47726;BME280;33483;48.294;16.388;2023-08-01T01:11:03;98734.44;;;17.80;100.00
47726;BME280;33483;48.294;16.388;2023-08-01T01:13:31;98731.63;;;17.80;100.00
47726;BME280;33483;48.294;16.388;2023-08-01T01:15:59;98727.97;;;17.78;100.00
47726;BME280;33483;48.294;16.388;2023-08-01T01:18:29;98736.06;;;17.83;100.00
47726;BME280;33483;48.294;16.388;2023-08-01T01:20:58;98732.22;;;17.79;100.00
47726;BME280;33483;48.294;16.388;2023-08-01T01:23:25;98734.03;;;17.74;100.00
47726;BME280;33483;48.294;16.388;2023-08-01T01:25:54;98727.09;;;17.75;100.00
47726;BME280;33483;48.294;16.388;2023-08-01T01:28:23;98729.75;;;17.73;100.00
47726;BME280;33483;48.294;16.388;2023-08-01T01:30:52;98727.53;;;17.72;100.00
47726;BME280;33483;48.294;16.388;2023-08-01T01:33:20;98711.59;;;17.74;100.00
47726;BME280;33483;48.294;16.388;2023-08-01T01:35:48;98708.06;;;17.74;100.00
47726;BME280;33483;48.294;16.388;2023-08-01T01:38:16;98718.81;;;17.77;100.00
47726;BME280;33483;48.294;16.388;2023-08-01T01:40:45;98712.59;;;17.79;100.00
47726;BME280;33483;48.294;16.388;2023-08-01T01:43:12;98706.41;;;17.80;100.00
47726;BME280;33483;48.294;16.388;2023-08-01T01:45:40;98703.47;;;17.78;100.00
47726;BME280;33483;48.294;16.388;2023-08-01T01:48:07;98705.69;;;17.80;100.00
47726;BME280;33483;48.294;16.388;2023-08-01T01:50:34;98701.69;;;17.83;100.00
47726;BME280;33483;48.294;16.388;2023-08-01T01:53:04;98713.44;;;17.91;100.00
47726;BME280;33483;48.294;16.388;2023-08-01T01:55:31;98701.34;;;17.88;100.00
47726;BME280;33483;48.294;16.388;2023-08-01T01:58:01;98702.97;;;17.91;100.00
47726;BME280;33483;48.294;16.388;2023-08-01T02:00:29;98701.22;;;17.86;100.00
47726;BME280;33483;48.294;16.388;2023-08-01T02:02:57;98685.84;;;17.87;100.00
47726;BME280;33483;48.294;16.388;2023-08-01T02:05:25;98685.72;;;17.85;100.00
47726;BME280;33483;48.294;16.388;2023-08-01T02:07:52;98684.53;;;17.88;100.00
47726;BME280;33483;48.294;16.388;2023-08-01T02:10:19;98683.06;;;17.87;100.00
47726;BME280;33483;48.294;16.388;2023-08-01T02:12:48;98684.41;;;17.86;100.00
47726;BME280;33483;48.294;16.388;2023-08-01T02:15:16;98683.06;;;17.87;100.00
47726;BME280;33483;48.294;16.388;2023-08-01T02:17:43;98679.50;;;17.87;100.00
47726;BME280;33483;48.294;16.388;2023-08-01T02:20:10;98668.44;;;17.89;100.00
47726;BME280;33483;48.294;16.388;2023-08-01T02:22:37;98662.13;;;17.88;100.00
47726;BME280;33483;48.294;16.388;2023-08-01T02:25:05;98667.13;;;17.90;100.00
47726;BME280;33483;48.294;16.388;2023-08-01T02:27:32;98669.31;;;17.91;100.00
47726;BME280;33483;48.294;16.388;2023-08-01T02:29:59;98661.06;;;17.93;100.00
47726;BME280;33483;48.294;16.388;2023-08-01T02:32:28;98665.31;;;17.94;100.00
47726;BME280;33483;48.294;16.388;2023-08-01T02:34:58;98667.19;;;18.02;100.00
47726;BME280;33483;48.294;16.388;2023-08-01T02:37:25;98663.31;;;18.07;100.00
47726;BME280;33483;48.294;16.388;2023-08-01T02:39:52;98663.91;;;18.05;100.00
47726;BME280;33483;48.294;16.388;2023-08-01T02:42:19;98661.25;;;18.07;100.00
47726;BME280;33483;48.294;16.388;2023-08-01T02:44:47;98662.00;;;18.08;100.00
47726;BME280;33483;48.294;16.388;2023-08-01T02:47:13;98656.53;;;18.10;100.00
47726;BME280;33483;48.294;16.388;2023-08-01T02:49:41;98658.13;;;18.13;100.00
47726;BME280;33483;48.294;16.388;2023-08-01T02:52:08;98654.09;;;18.16;100.00
47726;BME280;33483;48.294;16.388;2023-08-01T02:54:35;98654.09;;;18.16;100.00
47726;BME280;33483;48.294;16.388;2023-08-01T02:57:05;98656.31;;;18.17;100.00
47726;BME280;33483;48.294;16.388;2023-08-01T02:59:33;98659.25;;;18.19;100.00
47726;BME280;33483;48.294;16.388;2023-08-01T03:02:00;98654.38;;;18.20;100.00
47726;BME280;33483;48.294;16.388;2023-08-01T03:04:27;98655.22;;;18.22;100.00
47726;BME280;33483;48.294;16.388;2023-08-01T03:07:12;98640.50;;;18.22;100.00
47726;BME280;33483;48.294;16.388;2023-08-01T03:09:39;98647.28;;;18.19;100.00
47726;BME280;33483;48.294;16.388;2023-08-01T03:12:09;98650.56;;;18.15;100.00
47726;BME280;33483;48.294;16.388;2023-08-01T03:14:37;98645.56;;;18.14;100.00
47726;BME280;33483;48.294;16.388;2023-08-01T03:17:04;98651.28;;;18.16;100.00
47726;BME280;33483;48.294;16.388;2023-08-01T03:19:31;98649.22;;;18.16;100.00
47726;BME280;33483;48.294;16.388;2023-08-01T03:21:59;98643.50;;;18.14;100.00
47726;BME280;33483;48.294;16.388;2023-08-01T03:24:27;98642.28;;;18.17;100.00
47726;BME280;33483;48.294;16.388;2023-08-01T03:26:54;98636.19;;;18.21;100.00
47726;BME280;33483;48.294;16.388;2023-08-01T03:29:22;98629.97;;;18.22;100.00
47726;BME280;33483;48.294;16.388;2023-08-01T03:31:49;98626.47;;;18.22;100.00
47726;BME280;33483;48.294;16.388;2023-08-01T03:34:18;98621.69;;;18.24;100.00
47726;BME280;33483;48.294;16.388;2023-08-01T03:36:48;98625.38;;;18.27;100.00
47726;BME280;33483;48.294;16.388;2023-08-01T03:39:15;98633.19;;;18.28;100.00
47726;BME280;33483;48.294;16.388;2023-08-01T03:41:43;98641.13;;;18.32;100.00
47726;BME280;33483;48.294;16.388;2023-08-01T03:44:11;98638.59;;;18.36;100.00
47726;BME280;33483;48.294;16.388;2023-08-01T03:46:38;98643.00;;;18.39;100.00
47726;BME280;33483;48.294;16.388;2023-08-01T03:49:05;98648.78;;;18.41;100.00
47726;BME280;33483;48.294;16.388;2023-08-01T03:51:32;98652.56;;;18.45;100.00
47726;BME280;33483;48.294;16.388;2023-08-01T03:54:00;98660.19;;;18.54;100.00
47726;BME280;33483;48.294;16.388;2023-08-01T03:56:42;98652.03;;;18.58;100.00
47726;BME280;33483;48.294;16.388;2023-08-01T03:59:14;98651.28;;;18.58;100.00
47726;BME280;33483;48.294;16.388;2023-08-01T04:01:42;98652.03;;;18.58;100.00
47726;BME280;33483;48.294;16.388;2023-08-01T04:04:10;98656.03;;;18.55;100.00
47726;BME280;33483;48.294;16.388;2023-08-01T04:06:39;98655.41;;;18.57;100.00
47726;BME280;33483;48.294;16.388;2023-08-01T04:09:07;98658.97;;;18.57;100.00
47726;BME280;33483;48.294;16.388;2023-08-01T04:11:34;98645.06;;;18.59;100.00
47726;BME280;33483;48.294;16.388;2023-08-01T04:14:02;98647.25;;;18.61;100.00
47726;BME280;33483;48.294;16.388;2023-08-01T04:16:29;98649.44;;;18.62;100.00
47726;BME280;33483;48.294;16.388;2023-08-01T04:18:56;98648.13;;;18.63;100.00
47726;BME280;33483;48.294;16.388;2023-08-01T04:21:24;98650.19;;;18.63;100.00
47726;BME280;33483;48.294;16.388;2023-08-01T04:23:52;98648.97;;;18.66;100.00
47726;BME280;33483;48.294;16.388;2023-08-01T04:26:19;98652.78;;;18.70;100.00
47726;BME280;33483;48.294;16.388;2023-08-01T04:28:49;98644.84;;;18.67;100.00
47726;BME280;33483;48.294;16.388;2023-08-01T04:31:19;98637.28;;;18.69;100.00
47726;BME280;33483;48.294;16.388;2023-08-01T04:33:49;98638.00;;;18.70;100.00
47726;BME280;33483;48.294;16.388;2023-08-01T04:36:17;98646.31;;;18.68;100.00
47726;BME280;33483;48.294;16.388;2023-08-01T04:38:45;98644.09;;;18.66;100.00
47726;BME280;33483;48.294;16.388;2023-08-01T04:41:11;98649.84;;;18.68;100.00
47726;BME280;33483;48.294;16.388;2023-08-01T04:43:42;98649.25;;;18.70;100.00
47726;BME280;33483;48.294;16.388;2023-08-01T04:46:13;98655.13;;;18.74;100.00
47726;BME280;33483;48.294;16.388;2023-08-01T04:48:41;98642.53;;;18.75;100.00
47726;BME280;33483;48.294;16.388;2023-08-01T04:51:11;98641.47;;;18.80;100.00
47726;BME280;33483;48.294;16.388;2023-08-01T04:53:39;98629.47;;;18.79;100.00
47726;BME280;33483;48.294;16.388;2023-08-01T04:56:06;98616.59;;;18.86;100.00
47726;BME280;33483;48.294;16.388;2023-08-01T04:58:35;98623.16;;;18.90;100.00
47726;BME280;33483;48.294;16.388;2023-08-01T05:01:03;98620.75;;;18.96;100.00
47726;BME280;33483;48.294;16.388;2023-08-01T05:03:30;98607.06;;;19.02;100.00
47726;BME280;33483;48.294;16.388;2023-08-01T05:05:58;98615.88;;;19.08;100.00
47726;BME280;33483;48.294;16.388;2023-08-01T05:08:26;98618.34;;;19.14;100.00
47726;BME280;33483;48.294;16.388;2023-08-01T05:10:53;98610.00;;;19.16;100.00
47726;BME280;33483;48.294;16.388;2023-08-01T05:13:21;98615.63;;;19.16;100.00
47726;BME280;33483;48.294;16.388;2023-08-01T05:15:48;98601.97;;;19.22;100.00
47726;BME280;33483;48.294;16.388;2023-08-01T05:18:17;98596.84;;;19.30;100.00
47726;BME280;33483;48.294;16.388;2023-08-01T05:20:44;98600.53;;;19.44;100.00
47726;BME280;33483;48.294;16.388;2023-08-01T05:23:12;98612.72;;;19.60;100.00
47726;BME280;33483;48.294;16.388;2023-08-01T05:25:39;98609.31;;;19.73;100.00
47726;BME280;33483;48.294;16.388;2023-08-01T05:28:07;98609.66;;;19.79;100.00
47726;BME280;33483;48.294;16.388;2023-08-01T05:30:34;98608.91;;;19.90;100.00
47726;BME280;33483;48.294;16.388;2023-08-01T05:33:01;98612.56;;;19.93;100.00
47726;BME280;33483;48.294;16.388;2023-08-01T05:35:28;98614.66;;;19.92;100.00
47726;BME280;33483;48.294;16.388;2023-08-01T05:37:56;98620.28;;;19.92;100.00
47726;BME280;33483;48.294;16.388;2023-08-01T05:40:25;98621.47;;;19.89;100.00
47726;BME280;33483;48.294;16.388;2023-08-01T05:42:53;98623.34;;;19.85;100.00
47726;BME280;33483;48.294;16.388;2023-08-01T05:45:20;98620.28;;;19.81;100.00
47726;BME280;33483;48.294;16.388;2023-08-01T05:47:47;98615.88;;;19.78;100.00
47726;BME280;33483;48.294;16.388;2023-08-01T05:50:15;98621.03;;;19.81;100.00
47726;BME280;33483;48.294;16.388;2023-08-01T05:52:43;98622.47;;;19.82;100.00
47726;BME280;33483;48.294;16.388;2023-08-01T05:55:11;98622.22;;;19.90;100.00
47726;BME280;33483;48.294;16.388;2023-08-01T05:57:38;98630.16;;;19.93;100.00
47726;BME280;33483;48.294;16.388;2023-08-01T06:00:06;98628.84;;;19.94;100.00
47726;BME280;33483;48.294;16.388;2023-08-01T06:02:40;98621.97;;;19.97;100.00
47726;BME280;33483;48.294;16.388;2023-08-01T06:05:11;98636.88;;;20.00;100.00
47726;BME280;33483;48.294;16.388;2023-08-01T06:07:40;98631.00;;;20.07;100.00
47726;BME280;33483;48.294;16.388;2023-08-01T06:10:09;98627.31;;;20.17;100.00
47726;BME280;33483;48.294;16.388;2023-08-01T06:12:38;98625.47;;;20.21;100.00
47726;BME280;33483;48.294;16.388;2023-08-01T06:15:05;98623.13;;;20.29;100.00
47726;BME280;33483;48.294;16.388;2023-08-01T06:17:33;98622.63;;;20.33;100.00
47726;BME280;33483;48.294;16.388;2023-08-01T06:20:00;98622.13;;;20.36;100.00
47726;BME280;33483;48.294;16.388;2023-08-01T06:22:32;98622.34;;;20.40;100.00
47726;BME280;33483;48.294;16.388;2023-08-01T06:25:00;98631.41;;;20.39;100.00
47726;BME280;33483;48.294;16.388;2023-08-01T06:27:31;98636.13;;;20.48;100.00
47726;BME280;33483;48.294;16.388;2023-08-01T06:29:58;98637.72;;;20.51;100.00
47726;BME280;33483;48.294;16.388;2023-08-01T06:32:26;98632.59;;;20.47;100.00
47726;BME280;33483;48.294;16.388;2023-08-01T06:34:53;98631.56;;;20.54;100.00
47726;BME280;33483;48.294;16.388;2023-08-01T06:37:20;98636.81;;;20.60;100.00
47726;BME280;33483;48.294;16.388;2023-08-01T06:39:47;98651.19;;;20.77;100.00
47726;BME280;33483;48.294;16.388;2023-08-01T06:42:15;98648.72;;;20.83;100.00
47726;BME280;33483;48.294;16.388;2023-08-01T06:44:45;98656.25;;;20.92;100.00
47726;BME280;33483;48.294;16.388;2023-08-01T06:47:13;98649.97;;;20.94;100.00
47726;BME280;33483;48.294;16.388;2023-08-01T06:49:41;98657.56;;;21.03;100.00
47726;BME280;33483;48.294;16.388;2023-08-01T06:52:08;98660.09;;;21.10;100.00
47726;BME280;33483;48.294;16.388;2023-08-01T06:54:36;98664.97;;;21.10;100.00
47726;BME280;33483;48.294;16.388;2023-08-01T06:57:06;98668.91;;;21.30;100.00
47726;BME280;33483;48.294;16.388;2023-08-01T06:59:36;98665.06;;;21.51;100.00
47726;BME280;33483;48.294;16.388;2023-08-01T07:02:03;98659.25;;;21.74;100.00
47726;BME280;33483;48.294;16.388;2023-08-01T07:04:31;98671.38;;;21.90;100.00
47726;BME280;33483;48.294;16.388;2023-08-01T07:06:59;98668.84;;;22.09;100.00
47726;BME280;33483;48.294;16.388;2023-08-01T07:09:27;98661.06;;;22.37;100.00
47726;BME280;33483;48.294;16.388;2023-08-01T07:11:55;98661.41;;;22.72;100.00
47726;BME280;33483;48.294;16.388;2023-08-01T07:14:23;98664.13;;;22.99;100.00
47726;BME280;33483;48.294;16.388;2023-08-01T07:16:51;98667.66;;;23.00;100.00
47726;BME280;33483;48.294;16.388;2023-08-01T07:19:18;98663.56;;;22.87;100.00
47726;BME280;33483;48.294;16.388;2023-08-01T07:21:46;98677.50;;;22.83;100.00
47726;BME280;33483;48.294;16.388;2023-08-01T07:24:15;98687.13;;;22.78;100.00
47726;BME280;33483;48.294;16.388;2023-08-01T07:26:43;98687.84;;;22.79;100.00
47726;BME280;33483;48.294;16.388;2023-08-01T07:29:10;98687.47;;;22.71;100.00
47726;BME280;33483;48.294;16.388;2023-08-01T07:31:38;98681.34;;;22.61;100.00
47726;BME280;33483;48.294;16.388;2023-08-01T07:34:06;98683.44;;;22.60;100.00
47726;BME280;33483;48.294;16.388;2023-08-01T07:36:33;98684.16;;;22.61;100.00
47726;BME280;33483;48.294;16.388;2023-08-01T07:39:00;98688.97;;;22.58;100.00
47726;BME280;33483;48.294;16.388;2023-08-01T07:41:28;98688.44;;;22.62;100.00
47726;BME280;33483;48.294;16.388;2023-08-01T07:43:57;98678.06;;;22.53;100.00
47726;BME280;33483;48.294;16.388;2023-08-01T07:46:25;98676.41;;;22.48;100.00
47726;BME280;33483;48.294;16.388;2023-08-01T07:48:54;98670.59;;;22.44;100.00
47726;BME280;33483;48.294;16.388;2023-08-01T07:51:21;98677.72;;;22.31;100.00
47726;BME280;33483;48.294;16.388;2023-08-01T07:53:51;98685.59;;;22.19;100.00
47726;BME280;33483;48.294;16.388;2023-08-01T07:56:21;98679.13;;;22.03;100.00
47726;BME280;33483;48.294;16.388;2023-08-01T07:58:49;98676.06;;;21.99;100.00
47726;BME280;33483;48.294;16.388;2023-08-01T08:01:16;98669.41;;;21.92;100.00
47726;BME280;33483;48.294;16.388;2023-08-01T08:03:46;98683.50;;;21.79;100.00
47726;BME280;33483;48.294;16.388;2023-08-01T08:06:13;98675.94;;;21.70;100.00
47726;BME280;33483;48.294;16.388;2023-08-01T08:08:41;98674.69;;;21.73;100.00
47726;BME280;33483;48.294;16.388;2023-08-01T08:11:09;98669.91;;;21.75;100.00
47726;BME280;33483;48.294;16.388;2023-08-01T08:13:41;98670.13;;;21.79;100.00
47726;BME280;33483;48.294;16.388;2023-08-01T08:16:12;98665.97;;;21.80;100.00
47726;BME280;33483;48.294;16.388;2023-08-01T08:18:41;98669.50;;;21.81;100.00
47726;BME280;33483;48.294;16.388;2023-08-01T08:21:09;98664.38;;;21.77;100.00
47726;BME280;33483;48.294;16.388;2023-08-01T08:23:36;98665.41;;;21.70;100.00
47726;BME280;33483;48.294;16.388;2023-08-01T08:26:04;98671.06;;;21.70;100.00
47726;BME280;33483;48.294;16.388;2023-08-01T08:28:33;98673.75;;;21.68;100.00
47726;BME280;33483;48.294;16.388;2023-08-01T08:31:01;98677.22;;;21.67;100.00
47726;BME280;33483;48.294;16.388;2023-08-01T08:33:29;98665.84;;;21.78;100.00
47726;BME280;33483;48.294;16.388;2023-08-01T08:35:57;98664.47;;;21.79;100.00
47726;BME280;33483;48.294;16.388;2023-08-01T08:38:24;98652.53;;;21.67;100.00
47726;BME280;33483;48.294;16.388;2023-08-01T08:43:24;98655.69;;;21.60;100.00
47726;BME280;33483;48.294;16.388;2023-08-01T08:45:53;98645.63;;;21.57;100.00
47726;BME280;33483;48.294;16.388;2023-08-01T08:48:25;98643.66;;;21.59;100.00
47726;BME280;33483;48.294;16.388;2023-08-01T08:50:53;98636.25;;;21.66;100.00
47726;BME280;33483;48.294;16.388;2023-08-01T08:53:20;98640.03;;;21.70;100.00
47726;BME280;33483;48.294;16.388;2023-08-01T08:55:49;98642.75;;;21.68;100.00
47726;BME280;33483;48.294;16.388;2023-08-01T08:58:18;98637.50;;;21.63;100.00
47726;BME280;33483;48.294;16.388;2023-08-01T09:00:47;98633.66;;;21.56;100.00
47726;BME280;33483;48.294;16.388;2023-08-01T09:03:15;98625.19;;;21.43;100.00
47726;BME280;33483;48.294;16.388;2023-08-01T09:05:53;98628.59;;;21.41;100.00
47726;BME280;33483;48.294;16.388;2023-08-01T09:08:21;98626.00;;;21.32;100.00
47726;BME280;33483;48.294;16.388;2023-08-01T09:10:49;98620.53;;;21.22;100.00
47726;BME280;33483;48.294;16.388;2023-08-01T09:13:17;98626.00;;;21.18;100.00
47726;BME280;33483;48.294;16.388;2023-08-01T09:15:47;98618.69;;;21.13;100.00
47726;BME280;33483;48.294;16.388;2023-08-01T09:18:19;98617.31;;;21.14;100.00
47726;BME280;33483;48.294;16.388;2023-08-01T09:20:47;98623.69;;;21.14;100.00
47726;BME280;33483;48.294;16.388;2023-08-01T09:23:14;98615.13;;;21.12;100.00
47726;BME280;33483;48.294;16.388;2023-08-01T09:25:42;98617.72;;;21.08;100.00
47726;BME280;33483;48.294;16.388;2023-08-01T09:28:16;98614.06;;;21.06;100.00
47726;BME280;33483;48.294;16.388;2023-08-01T09:30:51;98612.06;;;21.08;100.00
47726;BME280;33483;48.294;16.388;2023-08-01T09:33:19;98616.78;;;21.04;100.00
47726;BME280;33483;48.294;16.388;2023-08-01T09:35:49;98613.84;;;21.02;100.00
47726;BME280;33483;48.294;16.388;2023-08-01T09:38:16;98623.75;;;21.03;100.00
47726;BME280;33483;48.294;16.388;2023-08-01T09:40:45;98617.91;;;20.99;100.00
47726;BME280;33483;48.294;16.388;2023-08-01T09:43:15;98618.63;;;20.99;100.00
47726;BME280;33483;48.294;16.388;2023-08-01T09:45:52;98626.09;;;20.95;100.00
47726;BME280;33483;48.294;16.388;2023-08-01T09:48:28;98631.91;;;20.85;100.00
47726;BME280;33483;48.294;16.388;2023-08-01T09:53:33;98617.03;;;20.71;100.00
47726;BME280;33483;48.294;16.388;2023-08-01T09:56:02;98627.47;;;20.69;100.00
47726;BME280;33483;48.294;16.388;2023-08-01T09:58:31;98630.28;;;20.69;100.00
47726;BME280;33483;48.294;16.388;2023-08-01T10:01:00;98638.34;;;20.74;100.00
47726;BME280;33483;48.294;16.388;2023-08-01T10:03:28;98631.47;;;20.77;100.00
47726;BME280;33483;48.294;16.388;2023-08-01T10:05:56;98627.28;;;20.78;100.00
47726;BME280;33483;48.294;16.388;2023-08-01T10:08:24;98632.72;;;20.74;100.00
47726;BME280;33483;48.294;16.388;2023-08-01T10:10:52;98643.50;;;20.66;100.00
47726;BME280;33483;48.294;16.388;2023-08-01T10:13:24;98647.84;;;20.56;100.00
47726;BME280;33483;48.294;16.388;2023-08-01T10:15:52;98648.25;;;20.50;100.00
47726;BME280;33483;48.294;16.388;2023-08-01T10:18:19;98647.47;;;20.36;100.00
47726;BME280;33483;48.294;16.388;2023-08-01T10:20:47;98654.91;;;20.32;100.00
47726;BME280;33483;48.294;16.388;2023-08-01T10:23:17;98652.72;;;20.30;100.00
47726;BME280;33483;48.294;16.388;2023-08-01T10:25:45;98662.41;;;20.27;100.00
47726;BME280;33483;48.294;16.388;2023-08-01T10:28:12;98661.78;;;20.29;100.00
47726;BME280;33483;48.294;16.388;2023-08-01T10:30:40;98654.69;;;20.28;100.00
47726;BME280;33483;48.294;16.388;2023-08-01T10:33:08;98657.03;;;20.20;100.00
47726;BME280;33483;48.294;16.388;2023-08-01T10:35:40;98644.31;;;20.19;100.00
47726;BME280;33483;48.294;16.388;2023-08-01T10:38:11;98637.47;;;20.22;100.00
47726;BME280;33483;48.294;16.388;2023-08-01T10:40:40;98635.75;;;20.17;100.00
47726;BME280;33483;48.294;16.388;2023-08-01T10:46:05;98634.88;;;20.14;100.00
47726;BME280;33483;48.294;16.388;2023-08-01T10:48:32;98619.13;;;20.09;100.00
47726;BME280;33483;48.294;16.388;2023-08-01T10:51:02;98628.91;;;20.08;100.00
47726;BME280;33483;48.294;16.388;2023-08-01T10:53:37;98628.56;;;20.02;100.00
47726;BME280;33483;48.294;16.388;2023-08-01T10:56:15;98634.19;;;20.02;100.00
47726;BME280;33483;48.294;16.388;2023-08-01T10:58:43;98639.78;;;20.13;100.00
47726;BME280;33483;48.294;16.388;2023-08-01T11:01:11;98643.19;;;20.12;100.00
47726;BME280;33483;48.294;16.388;2023-08-01T11:03:39;98648.13;;;20.00;100.00
47726;BME280;33483;48.294;16.388;2023-08-01T11:06:07;98643.72;;;19.97;100.00
47726;BME280;33483;48.294;16.388;2023-08-01T11:08:39;98650.59;;;19.94;100.00
47726;BME280;33483;48.294;16.388;2023-08-01T11:11:07;98645.81;;;19.96;100.00
47726;BME280;33483;48.294;16.388;2023-08-01T11:13:36;98644.47;;;19.97;100.00
47726;BME280;33483;48.294;16.388;2023-08-01T11:16:04;98637.00;;;20.02;100.00
47726;BME280;33483;48.294;16.388;2023-08-01T11:18:43;98630.63;;;20.01;100.00
47726;BME280;33483;48.294;16.388;2023-08-01T11:21:23;98630.88;;;20.05;100.00
47726;BME280;33483;48.294;16.388;2023-08-01T11:23:56;98639.22;;;19.92;100.00
47726;BME280;33483;48.294;16.388;2023-08-01T11:26:23;98627.97;;;19.92;100.00
47726;BME280;33483;48.294;16.388;2023-08-01T11:28:52;98634.34;;;19.92;100.00
47726;BME280;33483;48.294;16.388;2023-08-01T11:31:20;98635.66;;;19.91;100.00
47726;BME280;33483;48.294;16.388;2023-08-01T11:34:00;98636.66;;;19.84;100.00
47726;BME280;33483;48.294;16.388;2023-08-01T11:36:28;98621.75;;;19.70;100.00
47726;BME280;33483;48.294;16.388;2023-08-01T11:38:57;98623.00;;;19.67;100.00
47726;BME280;33483;48.294;16.388;2023-08-01T11:41:28;98607.69;;;19.70;100.00
47726;BME280;33483;48.294;16.388;2023-08-01T11:44:00;98618.34;;;19.72;100.00
47726;BME280;33483;48.294;16.388;2023-08-01T11:46:34;98630.09;;;19.57;100.00
47726;BME280;33483;48.294;16.388;2023-08-01T11:49:02;98636.31;;;19.55;100.00
47726;BME280;33483;48.294;16.388;2023-08-01T11:51:30;98638.88;;;19.51;100.00
47726;BME280;33483;48.294;16.388;2023-08-01T11:53:59;98631.19;;;19.52;100.00
47726;BME280;33483;48.294;16.388;2023-08-01T11:56:27;98622.28;;;19.55;100.00
47726;BME280;33483;48.294;16.388;2023-08-01T11:58:54;98623.72;;;19.56;100.00
47726;BME280;33483;48.294;16.388;2023-08-01T12:01:28;98619.84;;;19.61;100.00
47726;BME280;33483;48.294;16.388;2023-08-01T12:03:56;98601.84;;;19.66;100.00
47726;BME280;33483;48.294;16.388;2023-08-01T12:06:25;98601.13;;;19.66;100.00
47726;BME280;33483;48.294;16.388;2023-08-01T12:08:55;98594.75;;;19.65;100.00
47726;BME280;33483;48.294;16.388;2023-08-01T12:11:32;98592.56;;;19.64;100.00
47726;BME280;33483;48.294;16.388;2023-08-01T12:14:02;98595.41;;;19.52;100.00
47726;BME280;33483;48.294;16.388;2023-08-01T12:16:30;98597.56;;;19.65;100.00
47726;BME280;33483;48.294;16.388;2023-08-01T12:18:57;98602.47;;;19.65;100.00
47726;BME280;33483;48.294;16.388;2023-08-01T12:21:27;98600.25;;;19.63;100.00
47726;BME280;33483;48.294;16.388;2023-08-01T12:23:55;98604.06;;;19.68;100.00
47726;BME280;33483;48.294;16.388;2023-08-01T12:26:23;98610.28;;;19.66;100.00
47726;BME280;33483;48.294;16.388;2023-08-01T12:28:50;98613.84;;;19.55;100.00
47726;BME280;33483;48.294;16.388;2023-08-01T12:31:18;98605.41;;;19.55;100.00
47726;BME280;33483;48.294;16.388;2023-08-01T12:33:48;98608.94;;;19.67;100.00
47726;BME280;33483;48.294;16.388;2023-08-01T12:36:16;98599.03;;;19.78;100.00
47726;BME280;33483;48.294;16.388;2023-08-01T12:38:44;98598.41;;;19.79;100.00
47726;BME280;33483;48.294;16.388;2023-08-01T12:41:13;98590.97;;;19.72;100.00
47726;BME280;33483;48.294;16.388;2023-08-01T12:43:41;98603.28;;;19.79;100.00
47726;BME280;33483;48.294;16.388;2023-08-01T12:46:08;98595.34;;;19.75;100.00
47726;BME280;33483;48.294;16.388;2023-08-01T12:48:36;98595.34;;;19.75;100.00
47726;BME280;33483;48.294;16.388;2023-08-01T12:51:03;98597.69;;;19.67;100.00
47726;BME280;33483;48.294;16.388;2023-08-01T12:53:30;98595.63;;;19.56;100.00
47726;BME280;33483;48.294;16.388;2023-08-01T12:56:03;98603.56;;;19.60;100.00
47726;BME280;33483;48.294;16.388;2023-08-01T12:58:31;98623.63;;;19.54;100.00